sensor_id;sensor_type;location;lat;lon;timestamp;pressure;altitude;pressure_sealevel;temperature;humidity
62942;BME280;49042;47.318;19.874;2022-12-29T00:00:21;101162.78;;;-1.79;100.00
62942;BME280;49042;47.318;19.874;2022-12-29T00:03:23;101157.91;;;-1.95;100.00
62942;BME280;49042;47.318;19.874;2022-12-29T00:06:25;101157.09;;;-1.85;100.00
62942;BME280;49042;47.318;19.874;2022-12-29T00:09:27;101159.56;;;-1.67;100.00
62942;BME280;49042;47.318;19.874;2022-12-29T00:12:29;101159.09;;;-1.63;100.00
62942;BME280;49042;47.318;19.874;2022-12-29T00:15:50;101148.22;;;-1.60;100.00
62942;BME280;49042;47.318;19.874;2022-12-29T00:18:52;101148.84;;;-1.63;100.00
62942;BME280;49042;47.318;19.874;2022-12-29T00:21:54;101148.97;;;-1.62;100.00
62942;BME280;49042;47.318;19.874;2022-12-29T00:25:15;101142.56;;;-1.67;100.00
62942;BME280;49042;47.318;19.874;2022-12-29T00:28:35;101157.00;;;-1.96;100.00
62942;BME280;49042;47.318;19.874;2022-12-29T00:31:55;101157.53;;;-2.18;100.00
62942;BME280;49042;47.318;19.874;2022-12-29T00:35:30;101155.91;;;-1.89;100.00
62942;BME280;49042;47.318;19.874;2022-12-29T00:38:35;101155.25;;;-1.77;100.00
62942;BME280;49042;47.318;19.874;2022-12-29T00:42:05;101149.88;;;-1.89;100.00
62942;BME280;49042;47.318;19.874;2022-12-29T00:45:25;101151.81;;;-1.87;100.00
62942;BME280;49042;47.318;19.874;2022-12-29T00:48:27;101146.56;;;-1.88;100.00
62942;BME280;49042;47.318;19.874;2022-12-29T00:51:47;101146.25;;;-1.83;100.00
62942;BME280;49042;47.318;19.874;2022-12-29T00:54:49;101148.13;;;-1.71;100.00
62942;BME280;49042;47.318;19.874;2022-12-29T00:57:51;101157.31;;;-1.73;100.00
62942;BME280;49042;47.318;19.874;2022-12-29T01:01:00;101158.84;;;-1.75;100.00
62942;BME280;49042;47.318;19.874;2022-12-29T01:04:03;101146.75;;;-1.96;100.00
62942;BME280;49042;47.318;19.874;2022-12-29T01:07:05;101147.16;;;-1.82;100.00
62942;BME280;49042;47.318;19.874;2022-12-29T01:10:07;101149.13;;;-2.26;100.00
62942;BME280;49042;47.318;19.874;2022-12-29T01:13:12;101148.87;;;-2.00;100.00
62942;BME280;49042;47.318;19.874;2022-12-29T01:16:14;101151.69;;;-1.88;100.00
62942;BME280;49042;47.318;19.874;2022-12-29T01:19:17;101150.31;;;-2.22;100.00
62942;BME280;49042;47.318;19.874;2022-12-29T01:22:19;101158.47;;;-1.98;100.00
62942;BME280;49042;47.318;19.874;2022-12-29T01:25:20;101167.78;;;-1.89;100.00
62942;BME280;49042;47.318;19.874;2022-12-29T01:28:23;101153.88;;;-2.02;100.00
62942;BME280;49042;47.318;19.874;2022-12-29T01:31:26;101158.03;;;-1.94;100.00
62942;BME280;49042;47.318;19.874;2022-12-29T01:34:28;101153.19;;;-1.90;100.00
62942;BME280;49042;47.318;19.874;2022-12-29T01:37:30;101147.12;;;-2.10;100.00
62942;BME280;49042;47.318;19.874;2022-12-29T01:40:31;101131.91;;;-2.37;100.00
62942;BME280;49042;47.318;19.874;2022-12-29T01:46:53;101135.03;;;-2.40;100.00
62942;BME280;49042;47.318;19.874;2022-12-29T01:49:57;101131.38;;;-2.79;100.00
62942;BME280;49042;47.318;19.874;2022-12-29T01:53:13;101118.66;;;-2.97;100.00
62942;BME280;49042;47.318;19.874;2022-12-29T01:56:19;101123.56;;;-2.81;100.00
62942;BME280;49042;47.318;19.874;2022-12-29T01:59:25;101122.06;;;-2.70;100.00
62942;BME280;49042;47.318;19.874;2022-12-29T02:02:30;101125.84;;;-2.84;100.00
62942;BME280;49042;47.318;19.874;2022-12-29T02:05:40;101123.66;;;-2.52;100.00
62942;BME280;49042;47.318;19.874;2022-12-29T02:08:46;101121.31;;;-2.69;100.00
62942;BME280;49042;47.318;19.874;2022-12-29T02:11:48;101120.09;;;-2.63;100.00
62942;BME280;49042;47.318;19.874;2022-12-29T02:14:53;101122.34;;;-2.66;100.00
62942;BME280;49042;47.318;19.874;2022-12-29T02:41:33;101105.56;;;-2.36;100.00
62942;BME280;49042;47.318;19.874;2022-12-29T02:44:50;101102.25;;;-2.72;100.00
62942;BME280;49042;47.318;19.874;2022-12-29T02:48:32;101096.81;;;-2.66;100.00
62942;BME280;49042;47.318;19.874;2022-12-29T02:51:29;101092.47;;;-2.85;100.00
62942;BME280;49042;47.318;19.874;2022-12-29T02:54:35;101097.34;;;-3.15;100.00
62942;BME280;49042;47.318;19.874;2022-12-29T02:57:43;101092.69;;;-3.37;100.00
62942;BME280;49042;47.318;19.874;2022-12-29T03:08:44;101097.13;;;-2.81;100.00
62942;BME280;49042;47.318;19.874;2022-12-29T03:15:13;101100.91;;;-2.95;100.00
62942;BME280;49042;47.318;19.874;2022-12-29T03:19:00;101102.56;;;-2.87;100.00
62942;BME280;49042;47.318;19.874;2022-12-29T03:22:07;101110.19;;;-2.69;100.00
62942;BME280;49042;47.318;19.874;2022-12-29T03:25:32;101107.25;;;-3.01;100.00
62942;BME280;49042;47.318;19.874;2022-12-29T03:28:38;101102.84;;;-2.93;100.00
62942;BME280;49042;47.318;19.874;2022-12-29T03:31:42;101105.50;;;-2.64;100.00
62942;BME280;49042;47.318;19.874;2022-12-29T03:34:44;101092.78;;;-2.73;100.00
62942;BME280;49042;47.318;19.874;2022-12-29T03:37:53;101094.59;;;-2.81;100.00
62942;BME280;49042;47.318;19.874;2022-12-29T03:40:58;101086.62;;;-2.93;100.00
62942;BME280;49042;47.318;19.874;2022-12-29T03:44:01;101077.22;;;-3.21;100.00
62942;BME280;49042;47.318;19.874;2022-12-29T03:47:03;101080.97;;;-3.35;100.00
62942;BME280;49042;47.318;19.874;2022-12-29T03:50:06;101084.28;;;-3.27;100.00
62942;BME280;49042;47.318;19.874;2022-12-29T03:53:09;101089.06;;;-3.13;100.00
62942;BME280;49042;47.318;19.874;2022-12-29T03:56:11;101071.81;;;-3.33;100.00
62942;BME280;49042;47.318;19.874;2022-12-29T03:59:13;101060.87;;;-3.50;100.00
62942;BME280;49042;47.318;19.874;2022-12-29T04:02:15;101072.72;;;-3.68;100.00
62942;BME280;49042;47.318;19.874;2022-12-29T04:05:18;101074.75;;;-4.00;100.00
62942;BME280;49042;47.318;19.874;2022-12-29T04:08:20;101071.63;;;-3.70;100.00
62942;BME280;49042;47.318;19.874;2022-12-29T04:11:22;101075.25;;;-3.59;100.00
62942;BME280;49042;47.318;19.874;2022-12-29T04:14:30;101074.16;;;-3.97;100.00
62942;BME280;49042;47.318;19.874;2022-12-29T04:17:31;101069.31;;;-4.21;100.00
62942;BME280;49042;47.318;19.874;2022-12-29T04:20:33;101074.63;;;-3.92;100.00
62942;BME280;49042;47.318;19.874;2022-12-29T04:23:53;101066.81;;;-3.94;100.00
62942;BME280;49042;47.318;19.874;2022-12-29T04:26:55;101074.19;;;-3.70;100.00
62942;BME280;49042;47.318;19.874;2022-12-29T04:29:57;101079.22;;;-4.06;100.00
62942;BME280;49042;47.318;19.874;2022-12-29T04:32:58;101084.91;;;-4.09;100.00
62942;BME280;49042;47.318;19.874;2022-12-29T04:36:00;101080.00;;;-3.98;100.00
62942;BME280;49042;47.318;19.874;2022-12-29T04:39:02;101070.44;;;-3.83;100.00
62942;BME280;49042;47.318;19.874;2022-12-29T04:42:06;101071.63;;;-3.88;100.00
62942;BME280;49042;47.318;19.874;2022-12-29T04:45:08;101075.25;;;-3.86;100.00
62942;BME280;49042;47.318;19.874;2022-12-29T04:48:10;101079.81;;;-4.09;100.00
62942;BME280;49042;47.318;19.874;2022-12-29T04:51:12;101074.94;;;-3.89;100.00
62942;BME280;49042;47.318;19.874;2022-12-29T04:54:14;101067.19;;;-4.16;100.00
62942;BME280;49042;47.318;19.874;2022-12-29T04:57:16;101065.78;;;-3.96;100.00
62942;BME280;49042;47.318;19.874;2022-12-29T05:00:18;101065.19;;;-3.76;100.00
62942;BME280;49042;47.318;19.874;2022-12-29T05:03:20;101068.94;;;-3.90;100.00
62942;BME280;49042;47.318;19.874;2022-12-29T05:06:21;101064.56;;;-4.00;100.00
62942;BME280;49042;47.318;19.874;2022-12-29T05:09:23;101058.91;;;-3.79;100.00
62942;BME280;49042;47.318;19.874;2022-12-29T05:12:28;101072.34;;;-3.98;100.00
62942;BME280;49042;47.318;19.874;2022-12-29T05:15:30;101074.63;;;-3.83;100.00
62942;BME280;49042;47.318;19.874;2022-12-29T05:18:32;101068.22;;;-3.44;100.00
62942;BME280;49042;47.318;19.874;2022-12-29T05:21:33;101069.41;;;-3.49;100.00
62942;BME280;49042;47.318;19.874;2022-12-29T05:24:35;101070.91;;;-3.60;100.00
62942;BME280;49042;47.318;19.874;2022-12-29T05:27:37;101062.38;;;-3.43;100.00
62942;BME280;49042;47.318;19.874;2022-12-29T05:30:39;101057.56;;;-3.76;100.00
62942;BME280;49042;47.318;19.874;2022-12-29T05:33:40;101057.63;;;-4.19;100.00
62942;BME280;49042;47.318;19.874;2022-12-29T05:36:42;101055.41;;;-3.89;100.00
62942;BME280;49042;47.318;19.874;2022-12-29T05:39:44;101050.31;;;-3.98;100.00
62942;BME280;49042;47.318;19.874;2022-12-29T05:42:46;101049.00;;;-3.76;100.00
62942;BME280;49042;47.318;19.874;2022-12-29T05:45:51;101055.28;;;-3.81;100.00
62942;BME280;49042;47.318;19.874;2022-12-29T05:48:53;101047.47;;;-3.92;100.00
62942;BME280;49042;47.318;19.874;2022-12-29T05:51:55;101044.03;;;-3.74;100.00
62942;BME280;49042;47.318;19.874;2022-12-29T05:54:56;101039.66;;;-4.11;100.00
62942;BME280;49042;47.318;19.874;2022-12-29T05:57:58;101037.84;;;-4.12;100.00
62942;BME280;49042;47.318;19.874;2022-12-29T06:01:00;101042.16;;;-4.20;100.00
62942;BME280;49042;47.318;19.874;2022-12-29T06:04:01;101036.09;;;-3.87;100.00
62942;BME280;49042;47.318;19.874;2022-12-29T06:07:03;101036.84;;;-3.88;100.00
62942;BME280;49042;47.318;19.874;2022-12-29T06:10:06;101036.22;;;-4.03;100.00
62942;BME280;49042;47.318;19.874;2022-12-29T06:13:08;101034.50;;;-4.20;100.00
62942;BME280;49042;47.318;19.874;2022-12-29T06:16:10;101032.34;;;-3.90;100.00
62942;BME280;49042;47.318;19.874;2022-12-29T06:19:12;101023.34;;;-3.78;100.00
62942;BME280;49042;47.318;19.874;2022-12-29T06:22:14;101026.94;;;-3.84;100.00
62942;BME280;49042;47.318;19.874;2022-12-29T06:25:16;101023.78;;;-3.91;100.00
62942;BME280;49042;47.318;19.874;2022-12-29T06:28:18;101021.69;;;-3.77;100.00
62942;BME280;49042;47.318;19.874;2022-12-29T06:31:19;101028.12;;;-3.81;100.00
62942;BME280;49042;47.318;19.874;2022-12-29T06:34:21;101029.66;;;-3.38;100.00
62942;BME280;49042;47.318;19.874;2022-12-29T06:37:23;101035.03;;;-3.17;100.00
62942;BME280;49042;47.318;19.874;2022-12-29T06:40:25;101041.75;;;-3.00;100.00
62942;BME280;49042;47.318;19.874;2022-12-29T06:43:26;101039.03;;;-2.84;100.00
62942;BME280;49042;47.318;19.874;2022-12-29T06:46:28;101039.50;;;-2.97;100.00
62942;BME280;49042;47.318;19.874;2022-12-29T06:49:30;101037.50;;;-2.73;100.00
62942;BME280;49042;47.318;19.874;2022-12-29T06:52:31;101036.87;;;-2.79;100.00
62942;BME280;49042;47.318;19.874;2022-12-29T06:55:33;101050.59;;;-2.96;100.00
62942;BME280;49042;47.318;19.874;2022-12-29T06:58:35;101048.78;;;-2.42;100.00
62942;BME280;49042;47.318;19.874;2022-12-29T07:01:36;101046.59;;;-2.20;100.00
62942;BME280;49042;47.318;19.874;2022-12-29T07:04:38;101036.19;;;-1.93;100.00
62942;BME280;49042;47.318;19.874;2022-12-29T07:07:40;101037.28;;;-2.00;100.00
62942;BME280;49042;47.318;19.874;2022-12-29T07:10:42;101041.13;;;-2.14;100.00
62942;BME280;49042;47.318;19.874;2022-12-29T07:13:43;101040.69;;;-2.47;100.00
62942;BME280;49042;47.318;19.874;2022-12-29T07:16:45;101035.56;;;-1.90;100.00
62942;BME280;49042;47.318;19.874;2022-12-29T07:19:47;101037.19;;;-2.10;100.00
62942;BME280;49042;47.318;19.874;2022-12-29T07:22:49;101043.69;;;-2.14;100.00
62942;BME280;49042;47.318;19.874;2022-12-29T07:26:01;101053.91;;;-1.47;100.00
62942;BME280;49042;47.318;19.874;2022-12-29T07:29:04;101055.75;;;-0.86;100.00
62942;BME280;49042;47.318;19.874;2022-12-29T07:32:05;101058.00;;;-0.70;98.92
62942;BME280;49042;47.318;19.874;2022-12-29T07:35:07;101060.78;;;-0.26;97.45
62942;BME280;49042;47.318;19.874;2022-12-29T07:38:09;101068.84;;;-0.42;95.50
62942;BME280;49042;47.318;19.874;2022-12-29T07:41:11;101072.53;;;-0.39;95.22
62942;BME280;49042;47.318;19.874;2022-12-29T07:44:13;101060.06;;;-0.04;96.28
62942;BME280;49042;47.318;19.874;2022-12-29T07:47:14;101064.00;;;0.45;92.04
62942;BME280;49042;47.318;19.874;2022-12-29T07:50:16;101065.81;;;0.04;94.29
62942;BME280;49042;47.318;19.874;2022-12-29T07:53:18;101066.84;;;0.06;94.63
62942;BME280;49042;47.318;19.874;2022-12-29T07:56:20;101062.31;;;-0.79;98.68
62942;BME280;49042;47.318;19.874;2022-12-29T07:59:22;101068.38;;;-0.68;100.00
62942;BME280;49042;47.318;19.874;2022-12-29T08:02:24;101071.44;;;-0.22;98.06
62942;BME280;49042;47.318;19.874;2022-12-29T08:05:27;101070.25;;;-0.46;99.25
62942;BME280;49042;47.318;19.874;2022-12-29T08:08:29;101061.91;;;-0.44;99.46
62942;BME280;49042;47.318;19.874;2022-12-29T08:11:31;101056.28;;;-0.50;100.00
62942;BME280;49042;47.318;19.874;2022-12-29T08:14:32;101051.72;;;-0.63;100.00
62942;BME280;49042;47.318;19.874;2022-12-29T08:17:34;101049.63;;;-0.37;100.00
62942;BME280;49042;47.318;19.874;2022-12-29T08:20:36;101038.97;;;-0.31;100.00
62942;BME280;49042;47.318;19.874;2022-12-29T08:23:37;101052.97;;;0.04;100.00
62942;BME280;49042;47.318;19.874;2022-12-29T08:26:39;101055.72;;;0.80;95.03
62942;BME280;49042;47.318;19.874;2022-12-29T08:29:41;101061.53;;;2.72;84.92
62942;BME280;49042;47.318;19.874;2022-12-29T08:32:43;101060.75;;;3.47;76.87
62942;BME280;49042;47.318;19.874;2022-12-29T08:35:45;101058.94;;;4.62;71.44
62942;BME280;49042;47.318;19.874;2022-12-29T08:38:46;101059.44;;;2.19;80.38
62942;BME280;49042;47.318;19.874;2022-12-29T08:41:48;101073.09;;;1.38;86.40
62942;BME280;49042;47.318;19.874;2022-12-29T08:44:50;101066.19;;;0.40;94.30
62942;BME280;49042;47.318;19.874;2022-12-29T08:47:51;101063.47;;;-0.25;99.23
62942;BME280;49042;47.318;19.874;2022-12-29T08:50:53;101065.56;;;0.53;98.07
62942;BME280;49042;47.318;19.874;2022-12-29T08:53:55;101072.25;;;0.94;95.12
62942;BME280;49042;47.318;19.874;2022-12-29T08:56:56;101066.03;;;1.81;89.20
62942;BME280;49042;47.318;19.874;2022-12-29T08:59:58;101063.91;;;1.75;89.08
62942;BME280;49042;47.318;19.874;2022-12-29T09:03:00;101071.53;;;1.86;88.98
62942;BME280;49042;47.318;19.874;2022-12-29T09:06:02;101066.94;;;1.36;91.13
62942;BME280;49042;47.318;19.874;2022-12-29T09:09:04;101063.63;;;1.04;92.55
62942;BME280;49042;47.318;19.874;2022-12-29T09:12:05;101054.50;;;0.98;95.32
62942;BME280;49042;47.318;19.874;2022-12-29T09:15:08;101054.09;;;0.70;95.13
62942;BME280;49042;47.318;19.874;2022-12-29T09:18:10;101053.25;;;0.17;99.05
62942;BME280;49042;47.318;19.874;2022-12-29T09:21:19;101045.81;;;0.20;99.24
62942;BME280;49042;47.318;19.874;2022-12-29T09:24:21;101030.69;;;0.03;100.00
62942;BME280;49042;47.318;19.874;2022-12-29T09:27:23;101036.94;;;-0.46;100.00
62942;BME280;49042;47.318;19.874;2022-12-29T09:30:24;101032.31;;;-0.40;100.00
62942;BME280;49042;47.318;19.874;2022-12-29T09:33:27;101039.12;;;-0.19;100.00
62942;BME280;49042;47.318;19.874;2022-12-29T09:36:29;101033.00;;;-0.11;100.00
62942;BME280;49042;47.318;19.874;2022-12-29T09:39:30;101021.28;;;-0.39;100.00
62942;BME280;49042;47.318;19.874;2022-12-29T09:42:39;101010.72;;;-0.63;100.00
62942;BME280;49042;47.318;19.874;2022-12-29T09:45:45;101012.84;;;-0.38;100.00
62942;BME280;49042;47.318;19.874;2022-12-29T09:48:53;101010.69;;;-0.23;100.00
62942;BME280;49042;47.318;19.874;2022-12-29T09:52:04;101006.81;;;0.04;100.00
62942;BME280;49042;47.318;19.874;2022-12-29T09:55:14;101013.88;;;0.17;100.00
62942;BME280;49042;47.318;19.874;2022-12-29T09:58:26;101010.41;;;0.16;100.00
62942;BME280;49042;47.318;19.874;2022-12-29T10:04:32;100994.13;;;-0.26;100.00
62942;BME280;49042;47.318;19.874;2022-12-29T10:24:51;100987.22;;;0.58;100.00
62942;BME280;49042;47.318;19.874;2022-12-29T10:27:58;100978.97;;;0.73;100.00
62942;BME280;49042;47.318;19.874;2022-12-29T10:31:05;100975.50;;;1.05;100.00
62942;BME280;49042;47.318;19.874;2022-12-29T10:34:23;100972.84;;;0.93;100.00
62942;BME280;49042;47.318;19.874;2022-12-29T10:37:43;100969.88;;;0.66;100.00
62942;BME280;49042;47.318;19.874;2022-12-29T10:43:54;100964.19;;;0.37;100.00
62942;BME280;49042;47.318;19.874;2022-12-29T10:47:00;100952.28;;;0.60;100.00
62942;BME280;49042;47.318;19.874;2022-12-29T10:50:04;100950.09;;;0.65;100.00
62942;BME280;49042;47.318;19.874;2022-12-29T10:53:06;100952.75;;;0.44;100.00
62942;BME280;49042;47.318;19.874;2022-12-29T10:56:42;100943.06;;;0.19;100.00
62942;BME280;49042;47.318;19.874;2022-12-29T10:59:41;100946.09;;;0.36;100.00
62942;BME280;49042;47.318;19.874;2022-12-29T11:06:07;100924.53;;;0.34;100.00
62942;BME280;49042;47.318;19.874;2022-12-29T11:09:30;100911.19;;;0.38;100.00
62942;BME280;49042;47.318;19.874;2022-12-29T11:16:00;100909.78;;;0.64;100.00
62942;BME280;49042;47.318;19.874;2022-12-29T11:19:04;100901.59;;;0.91;100.00
62942;BME280;49042;47.318;19.874;2022-12-29T11:22:32;100904.09;;;1.01;100.00
62942;BME280;49042;47.318;19.874;2022-12-29T11:25:35;100898.59;;;0.96;100.00
62942;BME280;49042;47.318;19.874;2022-12-29T11:28:46;100909.09;;;1.00;100.00
62942;BME280;49042;47.318;19.874;2022-12-29T11:31:51;100913.62;;;1.49;100.00
62942;BME280;49042;47.318;19.874;2022-12-29T11:34:54;100901.34;;;1.45;100.00
62942;BME280;49042;47.318;19.874;2022-12-29T11:37:57;100889.94;;;1.41;100.00
62942;BME280;49042;47.318;19.874;2022-12-29T11:41:00;100898.34;;;1.51;100.00
62942;BME280;49042;47.318;19.874;2022-12-29T11:44:05;100892.94;;;1.35;100.00
62942;BME280;49042;47.318;19.874;2022-12-29T11:47:10;100901.72;;;1.62;100.00
62942;BME280;49042;47.318;19.874;2022-12-29T11:50:34;100891.56;;;1.75;100.00
62942;BME280;49042;47.318;19.874;2022-12-29T11:53:50;100898.19;;;1.84;100.00
62942;BME280;49042;47.318;19.874;2022-12-29T11:56:54;100892.84;;;2.05;100.00
62942;BME280;49042;47.318;19.874;2022-12-29T11:59:57;100883.78;;;1.98;100.00
62942;BME280;49042;47.318;19.874;2022-12-29T12:06:16;100875.62;;;1.10;100.00
62942;BME280;49042;47.318;19.874;2022-12-29T12:09:27;100876.81;;;1.38;100.00
62942;BME280;49042;47.318;19.874;2022-12-29T12:12:47;100863.87;;;1.48;100.00
62942;BME280;49042;47.318;19.874;2022-12-29T12:16:00;100872.22;;;1.80;100.00
62942;BME280;49042;47.318;19.874;2022-12-29T12:19:12;100879.28;;;1.95;100.00
62942;BME280;49042;47.318;19.874;2022-12-29T12:22:32;100874.56;;;2.13;100.00
62942;BME280;49042;47.318;19.874;2022-12-29T12:25:38;100878.03;;;2.02;100.00
62942;BME280;49042;47.318;19.874;2022-12-29T12:29:20;100855.09;;;2.29;100.00
62942;BME280;49042;47.318;19.874;2022-12-29T12:32:44;100857.25;;;1.87;100.00
62942;BME280;49042;47.318;19.874;2022-12-29T12:45:38;100880.75;;;2.77;100.00
62942;BME280;49042;47.318;19.874;2022-12-29T12:52:21;100873.81;;;3.02;98.88
62942;BME280;49042;47.318;19.874;2022-12-29T13:02:15;100859.78;;;3.50;95.08
62942;BME280;49042;47.318;19.874;2022-12-29T13:05:24;100850.66;;;2.90;97.45
62942;BME280;49042;47.318;19.874;2022-12-29T13:29:06;100849.56;;;3.51;97.31
62942;BME280;49042;47.318;19.874;2022-12-29T13:32:27;100837.09;;;4.26;93.96
62942;BME280;49042;47.318;19.874;2022-12-29T13:42:16;100832.16;;;3.21;98.36
62942;BME280;49042;47.318;19.874;2022-12-29T13:45:23;100832.78;;;2.54;100.00
62942;BME280;49042;47.318;19.874;2022-12-29T13:48:54;100834.38;;;3.03;100.00
62942;BME280;49042;47.318;19.874;2022-12-29T13:52:03;100831.22;;;2.82;100.00
62942;BME280;49042;47.318;19.874;2022-12-29T13:58:48;100836.34;;;1.94;100.00
62942;BME280;49042;47.318;19.874;2022-12-29T14:08:22;100840.59;;;1.94;100.00
62942;BME280;49042;47.318;19.874;2022-12-29T14:11:31;100839.31;;;2.24;100.00
62942;BME280;49042;47.318;19.874;2022-12-29T14:14:36;100841.28;;;2.53;100.00
62942;BME280;49042;47.318;19.874;2022-12-29T14:17:40;100837.59;;;2.49;100.00
62942;BME280;49042;47.318;19.874;2022-12-29T14:21:18;100839.03;;;2.58;100.00
62942;BME280;49042;47.318;19.874;2022-12-29T14:27:51;100831.41;;;1.85;100.00
62942;BME280;49042;47.318;19.874;2022-12-29T14:37:28;100859.81;;;1.99;100.00
62942;BME280;49042;47.318;19.874;2022-12-29T14:40:30;100872.19;;;1.44;100.00
62942;BME280;49042;47.318;19.874;2022-12-29T14:43:32;100873.44;;;1.74;100.00
62942;BME280;49042;47.318;19.874;2022-12-29T14:46:49;100868.28;;;1.74;100.00
62942;BME280;49042;47.318;19.874;2022-12-29T14:53:06;100875.81;;;1.83;100.00
62942;BME280;49042;47.318;19.874;2022-12-29T14:56:12;100868.88;;;1.81;100.00
62942;BME280;49042;47.318;19.874;2022-12-29T14:59:16;100859.81;;;1.87;100.00
62942;BME280;49042;47.318;19.874;2022-12-29T15:02:23;100851.38;;;1.53;100.00
62942;BME280;49042;47.318;19.874;2022-12-29T15:05:33;100862.31;;;1.38;100.00
62942;BME280;49042;47.318;19.874;2022-12-29T15:08:47;100856.75;;;1.44;100.00
62942;BME280;49042;47.318;19.874;2022-12-29T15:11:54;100859.88;;;1.52;100.00
62942;BME280;49042;47.318;19.874;2022-12-29T15:14:59;100870.97;;;1.51;100.00
62942;BME280;49042;47.318;19.874;2022-12-29T15:18:33;100854.13;;;1.32;100.00
62942;BME280;49042;47.318;19.874;2022-12-29T15:21:35;100853.69;;;1.26;100.00
62942;BME280;49042;47.318;19.874;2022-12-29T15:24:41;100844.19;;;1.25;100.00
62942;BME280;49042;47.318;19.874;2022-12-29T15:27:49;100854.00;;;1.19;100.00
62942;BME280;49042;47.318;19.874;2022-12-29T15:30:52;100852.50;;;1.10;100.00
62942;BME280;49042;47.318;19.874;2022-12-29T15:34:02;100858.53;;;1.11;100.00
62942;BME280;49042;47.318;19.874;2022-12-29T15:37:18;100854.06;;;1.08;100.00
62942;BME280;49042;47.318;19.874;2022-12-29T15:40:26;100850.25;;;1.03;100.00
62942;BME280;49042;47.318;19.874;2022-12-29T15:43:49;100855.38;;;1.03;100.00
62942;BME280;49042;47.318;19.874;2022-12-29T15:46:53;100855.44;;;0.92;100.00
62942;BME280;49042;47.318;19.874;2022-12-29T15:53:26;100864.25;;;0.84;100.00
62942;BME280;49042;47.318;19.874;2022-12-29T15:56:31;100860.37;;;0.67;100.00
62942;BME280;49042;47.318;19.874;2022-12-29T15:59:33;100862.81;;;0.65;100.00
62942;BME280;49042;47.318;19.874;2022-12-29T16:02:35;100869.84;;;0.45;100.00
62942;BME280;49042;47.318;19.874;2022-12-29T16:05:39;100865.00;;;0.60;100.00
62942;BME280;49042;47.318;19.874;2022-12-29T16:08:41;100869.91;;;0.57;100.00
62942;BME280;49042;47.318;19.874;2022-12-29T16:11:54;100870.50;;;0.65;100.00
62942;BME280;49042;47.318;19.874;2022-12-29T16:15:00;100861.00;;;0.64;100.00
62942;BME280;49042;47.318;19.874;2022-12-29T16:18:02;100863.84;;;0.67;100.00
62942;BME280;49042;47.318;19.874;2022-12-29T16:21:13;100865.13;;;0.62;100.00
62942;BME280;49042;47.318;19.874;2022-12-29T16:24:26;100869.12;;;0.58;100.00
62942;BME280;49042;47.318;19.874;2022-12-29T16:30:34;100869.44;;;0.51;100.00
62942;BME280;49042;47.318;19.874;2022-12-29T16:33:45;100870.63;;;0.44;100.00
62942;BME280;49042;47.318;19.874;2022-12-29T16:37:02;100869.44;;;0.51;100.00
62942;BME280;49042;47.318;19.874;2022-12-29T16:40:25;100856.78;;;0.42;100.00
62942;BME280;49042;47.318;19.874;2022-12-29T16:43:34;100868.41;;;0.16;100.00
62942;BME280;49042;47.318;19.874;2022-12-29T16:46:37;100879.62;;;-0.05;100.00
62942;BME280;49042;47.318;19.874;2022-12-29T16:49:48;100870.19;;;0.27;100.00
62942;BME280;49042;47.318;19.874;2022-12-29T16:52:52;100866.81;;;0.28;100.00
62942;BME280;49042;47.318;19.874;2022-12-29T16:55:55;100861.69;;;0.28;100.00
62942;BME280;49042;47.318;19.874;2022-12-29T17:02:14;100867.41;;;0.14;100.00
62942;BME280;49042;47.318;19.874;2022-12-29T17:05:18;100867.03;;;0.09;100.00
62942;BME280;49042;47.318;19.874;2022-12-29T17:08:21;100861.13;;;0.10;100.00
62942;BME280;49042;47.318;19.874;2022-12-29T17:11:33;100861.44;;;-0.08;100.00
62942;BME280;49042;47.318;19.874;2022-12-29T17:15:14;100867.97;;;-0.12;100.00
62942;BME280;49042;47.318;19.874;2022-12-29T17:18:20;100870.09;;;0.05;100.00
62942;BME280;49042;47.318;19.874;2022-12-29T17:21:21;100868.69;;;0.08;100.00
62942;BME280;49042;47.318;19.874;2022-12-29T17:24:23;100867.59;;;-0.16;100.00
62942;BME280;49042;47.318;19.874;2022-12-29T17:30:29;100865.78;;;-0.17;100.00
62942;BME280;49042;47.318;19.874;2022-12-29T17:33:36;100862.62;;;-0.25;100.00
62942;BME280;49042;47.318;19.874;2022-12-29T17:36:39;100855.31;;;-0.41;100.00
62942;BME280;49042;47.318;19.874;2022-12-29T17:39:41;100855.22;;;-0.64;100.00
62942;BME280;49042;47.318;19.874;2022-12-29T17:42:44;100868.53;;;-0.37;100.00
62942;BME280;49042;47.318;19.874;2022-12-29T17:45:52;100863.78;;;-0.22;100.00
62942;BME280;49042;47.318;19.874;2022-12-29T17:48:54;100864.13;;;-0.17;100.00
62942;BME280;49042;47.318;19.874;2022-12-29T17:51:56;100860.94;;;-0.14;100.00
62942;BME280;49042;47.318;19.874;2022-12-29T17:54:58;100863.25;;;-0.28;100.00
62942;BME280;49042;47.318;19.874;2022-12-29T17:58:01;100857.53;;;-0.57;100.00
62942;BME280;49042;47.318;19.874;2022-12-29T18:01:03;100864.81;;;-0.51;100.00
62942;BME280;49042;47.318;19.874;2022-12-29T18:04:05;100852.25;;;-0.37;100.00
62942;BME280;49042;47.318;19.874;2022-12-29T18:07:10;100856.09;;;-0.63;100.00
62942;BME280;49042;47.318;19.874;2022-12-29T18:10:13;100857.13;;;-0.40;100.00
62942;BME280;49042;47.318;19.874;2022-12-29T18:13:33;100861.75;;;-0.36;100.00
62942;BME280;49042;47.318;19.874;2022-12-29T18:16:47;100857.37;;;-0.58;100.00
62942;BME280;49042;47.318;19.874;2022-12-29T18:19:49;100859.94;;;-0.37;100.00
62942;BME280;49042;47.318;19.874;2022-12-29T18:22:53;100844.16;;;-0.31;100.00
62942;BME280;49042;47.318;19.874;2022-12-29T18:29:01;100853.91;;;-0.38;100.00
62942;BME280;49042;47.318;19.874;2022-12-29T18:32:03;100854.16;;;-0.35;100.00